sensor_id;sensor_type;location;lat;lon;timestamp;P1;durP1;ratioP1;P2;durP2;ratioP2
25984;SDS011;66753;53.848;10.658;2024-01-10T00:10:46;16.80;;;7.97;;
25984;SDS011;66753;53.848;10.658;2024-01-10T00:25:48;29.80;;;8.93;;
25984;SDS011;66753;53.848;10.658;2024-01-10T00:40:49;22.10;;;8.70;;
25984;SDS011;66753;53.848;10.658;2024-01-10T00:55:51;24.63;;;8.80;;
25984;SDS011;66753;53.848;10.658;2024-01-10T01:10:52;19.23;;;8.67;;
25984;SDS011;66753;53.848;10.658;2024-01-10T01:25:54;21.57;;;9.20;;
25984;SDS011;66753;53.848;10.658;2024-01-10T01:40:56;18.07;;;8.20;;
25984;SDS011;66753;53.848;10.658;2024-01-10T01:55:58;26.13;;;8.40;;
25984;SDS011;66753;53.848;10.658;2024-01-10T02:11:05;22.30;;;8.60;;
25984;SDS011;66753;53.848;10.658;2024-01-10T02:26:07;18.13;;;8.13;;
25984;SDS011;66753;53.848;10.658;2024-01-10T02:41:09;21.23;;;7.87;;
25984;SDS011;66753;53.848;10.658;2024-01-10T02:56:11;18.00;;;7.33;;
25984;SDS011;66753;53.848;10.658;2024-01-10T03:11:12;24.73;;;9.30;;
25984;SDS011;66753;53.848;10.658;2024-01-10T03:26:14;25.63;;;9.90;;
25984;SDS011;66753;53.848;10.658;2024-01-10T03:41:15;22.23;;;7.70;;
25984;SDS011;66753;53.848;10.658;2024-01-10T03:56:18;19.57;;;8.13;;
25984;SDS011;66753;53.848;10.658;2024-01-10T04:11:20;24.10;;;8.47;;
25984;SDS011;66753;53.848;10.658;2024-01-10T04:26:21;17.17;;;7.47;;
25984;SDS011;66753;53.848;10.658;2024-01-10T04:41:22;21.37;;;8.50;;
25984;SDS011;66753;53.848;10.658;2024-01-10T04:56:24;20.17;;;8.03;;
25984;SDS011;66753;53.848;10.658;2024-01-10T05:11:26;24.40;;;8.90;;
25984;SDS011;66753;53.848;10.658;2024-01-10T05:26:28;25.60;;;8.67;;
25984;SDS011;66753;53.848;10.658;2024-01-10T05:41:30;26.67;;;8.43;;
25984;SDS011;66753;53.848;10.658;2024-01-10T05:56:32;22.20;;;8.07;;
25984;SDS011;66753;53.848;10.658;2024-01-10T06:11:34;27.47;;;10.10;;
25984;SDS011;66753;53.848;10.658;2024-01-10T06:26:40;27.30;;;9.67;;
25984;SDS011;66753;53.848;10.658;2024-01-10T06:41:42;24.07;;;8.83;;
25984;SDS011;66753;53.848;10.658;2024-01-10T06:56:44;17.50;;;7.57;;
25984;SDS011;66753;53.848;10.658;2024-01-10T07:11:49;18.03;;;7.67;;
25984;SDS011;66753;53.848;10.658;2024-01-10T07:26:51;25.07;;;8.37;;
25984;SDS011;66753;53.848;10.658;2024-01-10T07:41:53;20.33;;;7.23;;
25984;SDS011;66753;53.848;10.658;2024-01-10T07:56:54;17.03;;;7.60;;
25984;SDS011;66753;53.848;10.658;2024-01-10T08:11:55;19.00;;;7.20;;
25984;SDS011;66753;53.848;10.658;2024-01-10T08:26:57;14.67;;;7.23;;
25984;SDS011;66753;53.848;10.658;2024-01-10T08:41:58;16.87;;;7.10;;
25984;SDS011;66753;53.848;10.658;2024-01-10T08:57:00;14.97;;;6.90;;
25984;SDS011;66753;53.848;10.658;2024-01-10T09:12:03;20.80;;;7.93;;
25984;SDS011;66753;53.848;10.658;2024-01-10T09:27:04;13.47;;;6.70;;
25984;SDS011;66753;53.848;10.658;2024-01-10T09:42:07;15.67;;;6.73;;
25984;SDS011;66753;53.848;10.658;2024-01-10T09:57:09;17.87;;;7.13;;
25984;SDS011;66753;53.848;10.658;2024-01-10T10:12:10;17.17;;;7.03;;
25984;SDS011;66753;53.848;10.658;2024-01-10T10:27:11;15.63;;;6.90;;
25984;SDS011;66753;53.848;10.658;2024-01-10T10:42:14;12.60;;;6.20;;
25984;SDS011;66753;53.848;10.658;2024-01-10T10:57:17;8.30;;;4.43;;
25984;SDS011;66753;53.848;10.658;2024-01-10T11:28:04;6.93;;;2.90;;
25984;SDS011;66753;53.848;10.658;2024-01-10T11:43:08;7.67;;;2.87;;
25984;SDS011;66753;53.848;10.658;2024-01-10T11:58:15;10.07;;;3.60;;
25984;SDS011;66753;53.848;10.658;2024-01-10T12:13:17;7.47;;;2.97;;
25984;SDS011;66753;53.848;10.658;2024-01-10T12:28:18;8.90;;;3.80;;
25984;SDS011;66753;53.848;10.658;2024-01-10T12:43:19;8.67;;;4.60;;
25984;SDS011;66753;53.848;10.658;2024-01-10T12:58:20;8.00;;;3.63;;
25984;SDS011;66753;53.848;10.658;2024-01-10T13:13:23;9.17;;;4.17;;
25984;SDS011;66753;53.848;10.658;2024-01-10T13:28:24;5.37;;;3.07;;
25984;SDS011;66753;53.848;10.658;2024-01-10T13:43:26;7.30;;;3.13;;
25984;SDS011;66753;53.848;10.658;2024-01-10T13:58:28;8.13;;;3.50;;
25984;SDS011;66753;53.848;10.658;2024-01-10T14:13:29;7.07;;;3.53;;
25984;SDS011;66753;53.848;10.658;2024-01-10T14:28:31;5.77;;;3.00;;
25984;SDS011;66753;53.848;10.658;2024-01-10T14:43:33;7.60;;;3.03;;
25984;SDS011;66753;53.848;10.658;2024-01-10T14:58:38;8.63;;;3.60;;
25984;SDS011;66753;53.848;10.658;2024-01-10T15:13:40;8.53;;;4.23;;
25984;SDS011;66753;53.848;10.658;2024-01-10T15:28:44;8.07;;;3.63;;
25984;SDS011;66753;53.848;10.658;2024-01-10T15:43:46;13.93;;;5.23;;
25984;SDS011;66753;53.848;10.658;2024-01-10T16:13:50;7.50;;;3.13;;
25984;SDS011;66753;53.848;10.658;2024-01-10T16:28:51;7.73;;;3.53;;
25984;SDS011;66753;53.848;10.658;2024-01-10T16:43:53;10.40;;;4.43;;
25984;SDS011;66753;53.848;10.658;2024-01-10T16:58:54;9.40;;;4.43;;
25984;SDS011;66753;53.848;10.658;2024-01-10T17:13:56;10.47;;;5.27;;
25984;SDS011;66753;53.848;10.658;2024-01-10T17:28:58;11.90;;;5.67;;
25984;SDS011;66753;53.848;10.658;2024-01-10T17:43:59;12.53;;;5.77;;
25984;SDS011;66753;53.848;10.658;2024-01-10T17:59:02;13.07;;;5.90;;
25984;SDS011;66753;53.848;10.658;2024-01-10T18:14:04;11.00;;;5.17;;
25984;SDS011;66753;53.848;10.658;2024-01-10T18:29:05;12.23;;;5.93;;
25984;SDS011;66753;53.848;10.658;2024-01-10T18:44:07;13.63;;;7.00;;
25984;SDS011;66753;53.848;10.658;2024-01-10T18:59:09;17.33;;;7.63;;
25984;SDS011;66753;53.848;10.658;2024-01-10T19:14:12;15.57;;;7.00;;
25984;SDS011;66753;53.848;10.658;2024-01-10T19:44:16;9.03;;;3.90;;
25984;SDS011;66753;53.848;10.658;2024-01-10T19:59:18;7.47;;;3.83;;
25984;SDS011;66753;53.848;10.658;2024-01-10T20:14:20;10.07;;;4.33;;
25984;SDS011;66753;53.848;10.658;2024-01-10T20:29:21;11.47;;;4.67;;
25984;SDS011;66753;53.848;10.658;2024-01-10T20:44:22;9.93;;;4.73;;
25984;SDS011;66753;53.848;10.658;2024-01-10T20:59:24;12.90;;;5.17;;
25984;SDS011;66753;53.848;10.658;2024-01-10T21:14:26;13.17;;;5.97;;
25984;SDS011;66753;53.848;10.658;2024-01-10T21:29:28;9.93;;;4.07;;
25984;SDS011;66753;53.848;10.658;2024-01-10T21:44:30;9.23;;;4.20;;
25984;SDS011;66753;53.848;10.658;2024-01-10T21:59:33;7.57;;;4.03;;
25984;SDS011;66753;53.848;10.658;2024-01-10T22:14:34;8.83;;;3.60;;
25984;SDS011;66753;53.848;10.658;2024-01-10T22:29:35;6.87;;;2.93;;
25984;SDS011;66753;53.848;10.658;2024-01-10T22:44:38;6.70;;;2.50;;
25984;SDS011;66753;53.848;10.658;2024-01-10T22:59:39;4.50;;;2.00;;
25984;SDS011;66753;53.848;10.658;2024-01-10T23:14:41;6.23;;;3.00;;
25984;SDS011;66753;53.848;10.658;2024-01-10T23:29:42;6.77;;;3.10;;
25984;SDS011;66753;53.848;10.658;2024-01-10T23:44:43;6.27;;;3.23;;
25984;SDS011;66753;53.848;10.658;2024-01-10T23:59:44;8.43;;;4.23;;
